Time;durP1;ratioP1;P1;durP2;ratioP2;P2;SDS_P1;SDS_P2;PMS_P1;PMS_P2;Temp;Humidity;BMP_temperature;BMP_pressure;BME280_temperature;BME280_humidity;BME280_pressure;Samples;Min_cycle;Max_cycle;Signal;HPM_P1;HPM_P2
2021/12/01 00:00:45;;;;;;;6.97;2.13;;;;;;;3.91;88.45;100230.09;4955437;28;20189;-72
2021/12/01 00:03:10;;;;;;;10.53;3.07;;;;;;;3.90;88.37;100229.22;4955474;29;20272;-72
2021/12/01 00:05:36;;;;;;;15.13;2.57;;;;;;;3.91;89.10;100217.44;4969739;28;20619;-72
2021/12/01 00:08:03;;;;;;;15.83;3.40;;;;;;;3.93;89.53;100215.81;4954895;28;20869;-73
2021/12/01 00:10:31;;;;;;;12.70;2.70;;;;;;;3.92;89.52;100203.97;4955127;28;20241;-73
2021/12/01 00:12:56;;;;;;;14.80;3.27;;;;;;;3.94;89.49;100202.34;4954890;28;20249;-72
2021/12/01 00:15:22;;;;;;;16.93;3.13;;;;;;;3.94;89.43;100188.00;4955131;28;20181;-73
2021/12/01 00:17:48;;;;;;;17.97;2.77;;;;;;;3.96;89.65;100183.00;4954581;28;20221;-73
2021/12/01 00:20:17;;;;;;;14.27;2.90;;;;;;;3.95;89.69;100179.59;4954736;28;20263;-73
2021/12/01 00:22:43;;;;;;;9.10;2.83;;;;;;;3.97;90.18;100170.41;4954857;28;20620;-73
2021/12/01 00:25:11;;;;;;;12.70;2.73;;;;;;;4.01;89.70;100156.16;4954893;28;20695;-72
2021/12/01 00:27:37;;;;;;;19.23;3.53;;;;;;;4.04;90.35;100157.13;4954704;28;20240;-73
2021/12/01 00:30:04;;;;;;;13.30;2.93;;;;;;;4.07;90.00;100156.38;4968828;28;20266;-72
2021/12/01 00:32:30;;;;;;;9.90;2.67;;;;;;;4.08;90.17;100142.88;4954616;28;20209;-72
2021/12/01 00:34:58;;;;;;;14.90;3.27;;;;;;;4.11;90.19;100143.00;4954660;28;20196;-73
2021/12/01 00:37:24;;;;;;;10.93;3.27;;;;;;;4.12;90.37;100132.06;4954789;28;20177;-72
2021/12/01 00:39:49;;;;;;;14.47;3.73;;;;;;;4.14;90.33;100127.91;4954178;28;20294;-73
2021/12/01 00:42:14;;;;;;;12.97;2.90;;;;;;;4.15;90.76;100122.88;4954128;28;20204;-73
2021/12/01 00:44:47;;;;;;;12.07;2.77;;;;;;;4.15;90.56;100112.75;4954534;28;20185;-73
2021/12/01 00:47:14;;;;;;;12.10;2.70;;;;;;;4.17;90.76;100113.66;4954485;28;20181;-72
2021/12/01 00:49:41;;;;;;;11.03;2.57;;;;;;;4.19;90.48;100111.19;4954074;28;20225;-73
2021/12/01 00:52:07;;;;;;;12.97;2.90;;;;;;;4.20;90.76;100108.72;4952586;28;20304;-72
2021/12/01 00:54:33;;;;;;;15.00;3.63;;;;;;;4.21;90.79;100092.69;4953211;29;20638;-73
2021/12/01 00:56:59;;;;;;;18.10;3.90;;;;;;;4.22;91.05;100079.22;4968398;28;20192;-73
2021/12/01 00:59:25;;;;;;;15.77;3.70;;;;;;;4.24;91.41;100090.25;4954113;28;20185;-73
2021/12/01 01:01:50;;;;;;;17.50;4.10;;;;;;;4.24;91.65;100092.78;4954328;28;20267;-73
2021/12/01 01:04:16;;;;;;;17.17;4.27;;;;;;;4.25;92.33;100089.47;4954273;28;20271;-73
2021/12/01 01:06:42;;;;;;;22.70;5.00;;;;;;;4.26;92.21;100082.69;4954261;28;20200;-73
2021/12/01 01:09:09;;;;;;;20.90;4.93;;;;;;;4.27;92.72;100074.28;4953351;28;20202;-72
2021/12/01 01:17:09;;;;;;;14.37;4.80;;;;;;;4.35;92.71;100056.00;4954034;28;20174;-73
2021/12/01 01:19:37;;;;;;;14.17;4.23;;;;;;;4.37;92.49;100038.31;4953607;28;20201;-73
2021/12/01 01:22:04;;;;;;;17.23;4.17;;;;;;;4.38;92.61;100033.25;4953520;28;20748;-73
2021/12/01 01:24:30;;;;;;;12.97;4.20;;;;;;;4.38;92.31;100028.19;4953772;28;20185;-73
2021/12/01 01:26:56;;;;;;;15.57;4.03;;;;;;;4.38;92.60;100028.19;4953637;28;20691;-73
2021/12/01 01:29:23;;;;;;;15.23;3.90;;;;;;;4.38;92.88;100018.06;4952174;29;20189;-73
2021/12/01 01:31:52;;;;;;;11.73;3.70;;;;;;;4.37;92.65;100016.34;4953496;28;20209;-72
2021/12/01 01:34:17;;;;;;;20.57;4.50;;;;;;;4.36;92.42;100014.63;4953264;28;20188;-73
2021/12/01 01:36:43;;;;;;;13.67;3.73;;;;;;;4.37;92.55;100003.66;4953700;28;20182;-73
2021/12/01 01:39:08;;;;;;;14.87;4.33;;;;;;;4.41;92.91;99995.34;4952291;29;20662;-73
2021/12/01 01:41:34;;;;;;;15.87;3.67;;;;;;;4.43;92.49;99993.75;4953414;28;20212;-73
2021/12/01 01:44:00;;;;;;;12.50;4.23;;;;;;;4.42;92.50;99981.84;4952189;29;20199;-73
2021/12/01 01:46:34;;;;;;;16.87;4.33;;;;;;;4.42;92.56;99986.09;4952667;28;20674;-73
2021/12/01 01:49:10;;;;;;;19.23;4.40;;;;;;;4.45;92.68;99983.63;4951407;29;20220;-74
2021/12/01 01:51:37;;;;;;;16.03;4.30;;;;;;;4.46;93.06;99965.94;4953206;28;20221;-73
2021/12/01 01:54:03;;;;;;;11.23;4.07;;;;;;;4.48;93.03;99968.50;4953187;28;20182;-73
2021/12/01 01:56:29;;;;;;;12.57;4.23;;;;;;;4.49;93.16;99949.97;4952765;28;20216;-73
2021/12/01 01:58:55;;;;;;;13.73;4.70;;;;;;;4.52;93.13;99950.06;4952766;28;20211;-73
2021/12/01 02:04:04;;;;;;;16.73;5.30;;;;;;;4.56;93.95;99934.13;4952754;28;20174;-73
2021/12/01 02:06:31;;;;;;;17.00;5.37;;;;;;;4.58;94.14;99913.06;4953178;28;20589;-73
2021/12/01 02:08:58;;;;;;;20.03;5.63;;;;;;;4.60;94.71;99908.06;4952851;28;20185;-73
2021/12/01 02:11:27;;;;;;;20.23;6.03;;;;;;;4.60;94.56;99902.97;4952515;28;20311;-72
2021/12/01 02:13:53;;;;;;;16.60;6.13;;;;;;;4.64;94.83;99899.69;4953138;28;20185;-73
2021/12/01 02:16:20;;;;;;;21.60;6.60;;;;;;;4.62;95.05;99898.78;4951662;28;20287;-73
2021/12/01 02:18:46;;;;;;;17.27;6.10;;;;;;;4.65;95.14;99893.81;4952818;28;20655;-73
2021/12/01 02:21:17;;;;;;;15.10;6.40;;;;;;;4.66;95.25;99891.34;4951143;29;20305;-73
2021/12/01 02:23:46;;;;;;;19.13;6.87;;;;;;;4.67;95.10;99895.59;4951147;29;20197;-73
2021/12/01 02:26:13;;;;;;;20.57;7.47;;;;;;;4.69;95.77;99878.72;4952662;28;20189;-73
2021/12/01 02:28:40;;;;;;;17.60;7.13;;;;;;;4.72;95.50;99872.88;4952471;28;20722;-73
2021/12/01 02:31:06;;;;;;;26.70;7.60;;;;;;;4.71;95.53;99863.56;4952422;28;20244;-73
2021/12/01 02:33:32;;;;;;;21.93;7.73;;;;;;;4.72;95.99;99858.53;4950904;29;20204;-73
2021/12/01 02:35:58;;;;;;;20.33;7.57;;;;;;;4.73;95.83;99847.56;4952469;28;20196;-73
2021/12/01 02:38:24;;;;;;;23.87;8.43;;;;;;;4.76;96.06;99834.09;4952192;28;20196;-72
2021/12/01 02:40:51;;;;;;;21.63;8.63;;;;;;;4.75;96.05;99830.69;4952317;28;20207;-73
2021/12/01 02:43:17;;;;;;;25.50;8.43;;;;;;;4.76;96.16;99827.38;4952004;28;20276;-73
2021/12/01 02:45:43;;;;;;;21.27;8.43;;;;;;;4.80;96.00;99810.56;4951589;28;20595;-73
2021/12/01 02:48:13;;;;;;;18.83;8.17;;;;;;;4.82;95.97;99811.44;4950601;28;20189;-72
2021/12/01 02:50:42;;;;;;;16.90;8.37;;;;;;;4.82;96.66;99802.16;4951891;28;20713;-72
2021/12/01 02:53:08;;;;;;;15.07;8.10;;;;;;;4.85;96.53;99802.25;4951992;28;20185;-73
2021/12/01 02:55:39;;;;;;;18.37;7.93;;;;;;;4.85;96.57;99797.19;4951605;28;20541;-73
2021/12/01 02:58:06;;;;;;;18.63;8.17;;;;;;;4.86;96.79;99793.81;4951855;28;20181;-72
2021/12/01 03:00:31;;;;;;;16.47;7.60;;;;;;;4.87;96.67;99785.38;4951961;28;20213;-72
2021/12/01 03:02:57;;;;;;;14.27;7.33;;;;;;;4.88;96.81;99774.41;4951918;28;20246;-73
2021/12/01 03:05:23;;;;;;;15.30;7.23;;;;;;;4.90;96.75;99759.25;4951265;28;20185;-73
2021/12/01 03:07:49;;;;;;;13.97;7.53;;;;;;;4.91;96.55;99754.22;4951737;28;20189;-72
2021/12/01 03:10:14;;;;;;;16.03;6.90;;;;;;;4.92;96.59;99743.25;4966400;28;20219;-72
2021/12/01 03:12:41;;;;;;;11.37;6.63;;;;;;;4.94;97.00;99741.63;4951843;28;20217;-72
2021/12/01 03:15:09;;;;;;;15.47;6.63;;;;;;;4.95;97.28;99738.25;4951364;28;20188;-72
2021/12/01 03:17:35;;;;;;;11.23;5.93;;;;;;;4.98;96.83;99724.78;4951952;28;20689;-73
2021/12/01 03:20:02;;;;;;;10.73;5.40;;;;;;;5.00;96.69;99718.91;4950966;28;20280;-72
2021/12/01 03:22:27;;;;;;;12.03;6.20;;;;;;;5.03;96.52;99713.94;4951436;28;20227;-72
2021/12/01 03:24:54;;;;;;;10.07;5.70;;;;;;;5.02;96.85;99694.44;4951445;28;20682;-72
2021/12/01 03:27:20;;;;;;;9.50;5.17;;;;;;;5.04;97.01;99702.09;4951730;28;20189;-73
2021/12/01 03:29:49;;;;;;;9.70;5.67;;;;;;;5.06;96.64;99685.25;4951342;28;20205;-72
2021/12/01 03:32:16;;;;;;;10.10;5.27;;;;;;;5.06;96.58;99665.78;4951630;28;20296;-73
2021/12/01 03:34:43;;;;;;;9.60;5.83;;;;;;;5.08;97.17;99648.94;4966731;28;20197;-73
2021/12/01 03:37:10;;;;;;;8.93;4.87;;;;;;;5.10;96.71;99643.88;4951264;28;20246;-73
2021/12/01 03:39:36;;;;;;;7.13;4.67;;;;;;;5.11;97.13;99638.84;4966123;28;20215;-73
2021/12/01 03:42:02;;;;;;;9.20;4.40;;;;;;;5.14;96.79;99640.56;4951556;28;20777;-73
2021/12/01 03:44:27;;;;;;;8.63;4.53;;;;;;;5.14;97.03;99633.84;4951486;28;20279;-72
2021/12/01 03:46:53;;;;;;;8.60;4.57;;;;;;;5.17;96.77;99628.84;4951577;28;20267;-73
2021/12/01 03:49:20;;;;;;;9.60;4.50;;;;;;;5.18;96.76;99622.06;4950563;28;20228;-73
2021/12/01 03:51:46;;;;;;;10.60;4.30;;;;;;;5.20;96.81;99618.72;4951089;28;20225;-73
2021/12/01 03:54:11;;;;;;;5.37;4.20;;;;;;;5.23;96.63;99585.81;4951308;28;20193;-72
2021/12/01 03:56:37;;;;;;;6.27;4.37;;;;;;;5.24;96.72;99573.97;4951330;28;20213;-73
2021/12/01 03:59:04;;;;;;;5.47;4.30;;;;;;;5.26;97.05;99573.22;4951174;28;20257;-72
2021/12/01 04:01:30;;;;;;;6.00;4.37;;;;;;;5.28;96.91;99579.16;4964985;28;20639;-72
2021/12/01 04:03:55;;;;;;;7.33;4.53;;;;;;;5.28;96.72;99569.00;4950134;28;20288;-72
2021/12/01 04:06:21;;;;;;;6.13;4.43;;;;;;;5.30;96.85;99562.25;4951166;28;20207;-72
2021/12/01 04:08:48;;;;;;;7.60;4.70;;;;;;;5.33;96.93;99562.34;4950995;29;20193;-72
2021/12/01 04:11:13;;;;;;;7.43;4.67;;;;;;;5.35;97.34;99557.28;4966533;28;20741;-73
2021/12/01 04:13:39;;;;;;;6.07;4.90;;;;;;;5.34;97.03;99546.28;4966038;28;20188;-72
2021/12/01 04:16:04;;;;;;;6.50;4.80;;;;;;;5.36;96.78;99536.16;4951305;28;20560;-73
2021/12/01 04:18:30;;;;;;;6.47;4.53;;;;;;;5.37;97.23;99531.13;4950978;28;20671;-73
2021/12/01 04:20:56;;;;;;;6.93;5.07;;;;;;;5.39;97.35;99526.06;4950620;28;20221;-72
2021/12/01 04:23:21;;;;;;;9.87;5.17;;;;;;;5.38;97.25;99516.75;4951102;28;20328;-72
2021/12/01 04:25:47;;;;;;;7.50;5.37;;;;;;;5.39;97.12;99508.31;4951131;28;20192;-73
2021/12/01 04:28:13;;;;;;;7.90;5.37;;;;;;;5.41;97.22;99496.50;4950928;28;20264;-72
2021/12/01 04:30:38;;;;;;;7.97;5.33;;;;;;;5.43;97.38;99483.00;4951220;28;20225;-72
2021/12/01 04:33:04;;;;;;;8.80;6.13;;;;;;;5.42;97.29;99482.97;4954650;28;20680;-72
2021/12/01 04:35:30;;;;;;;8.80;6.13;;;;;;;5.45;97.34;99470.34;4953463;29;20217;-72
2021/12/01 04:37:56;;;;;;;11.30;6.20;;;;;;;5.46;97.04;99461.88;4954550;28;20276;-73
2021/12/01 04:40:23;;;;;;;9.27;6.20;;;;;;;5.47;96.98;99456.84;4954628;28;20710;-72
2021/12/01 04:42:49;;;;;;;11.60;6.77;;;;;;;5.46;97.16;99432.31;4954057;28;20217;-72
2021/12/01 04:45:17;;;;;;;10.77;6.40;;;;;;;5.50;97.02;99435.75;4954508;28;20185;-72
2021/12/01 04:47:46;;;;;;;12.77;7.37;;;;;;;5.52;97.26;99427.31;4954554;28;20239;-72
2021/12/01 04:50:16;;;;;;;12.40;7.57;;;;;;;5.53;96.88;99416.31;4953659;28;20295;-72
2021/12/01 04:52:42;;;;;;;13.90;7.50;;;;;;;5.54;97.27;99407.03;4954359;28;20211;-73
2021/12/01 04:55:08;;;;;;;13.60;8.07;;;;;;;5.54;98.10;99402.84;4952447;29;20189;-72
2021/12/01 04:57:37;;;;;;;12.83;7.60;;;;;;;5.55;97.72;99388.44;4954095;28;20200;-72
2021/12/01 05:00:03;;;;;;;11.53;7.03;;;;;;;5.55;97.64;99376.59;4954073;28;20676;-72
2021/12/01 05:02:29;;;;;;;12.47;6.57;;;;;;;5.57;97.59;99374.09;4954149;28;20209;-72
2021/12/01 05:04:54;;;;;;;11.47;7.20;;;;;;;5.60;97.81;99363.97;4954117;28;20529;-73
2021/12/01 05:07:20;;;;;;;10.80;6.57;;;;;;;5.60;98.02;99362.31;4953422;28;20539;-73
2021/12/01 05:09:45;;;;;;;9.73;5.87;;;;;;;5.66;98.00;99364.09;4953616;28;20197;-72
2021/12/01 05:12:11;;;;;;;8.33;5.07;;;;;;;5.68;97.45;99354.78;4954035;28;20208;-73
2021/12/01 05:14:37;;;;;;;9.30;5.40;;;;;;;5.68;98.13;99342.97;4954058;28;20260;-72
2021/12/01 05:17:03;;;;;;;8.67;5.40;;;;;;;5.75;98.05;99337.13;4953916;28;20734;-72
2021/12/01 05:19:29;;;;;;;7.43;4.87;;;;;;;5.77;98.03;99327.84;4967704;28;20204;-72
2021/12/01 05:21:55;;;;;;;6.70;4.23;;;;;;;5.80;98.32;99317.75;4953737;28;20757;-72
2021/12/01 05:24:21;;;;;;;3.77;3.07;;;;;;;5.87;98.43;99311.94;4953954;28;20196;-73
2021/12/01 05:26:46;;;;;;;3.83;3.20;;;;;;;5.91;97.96;99298.44;4953323;28;20200;-72
2021/12/01 05:29:12;;;;;;;3.20;2.90;;;;;;;5.93;98.27;99293.38;4953004;29;20188;-73
2021/12/01 05:31:38;;;;;;;5.17;3.10;;;;;;;5.96;98.31;99295.94;4953456;28;20229;-72
2021/12/01 05:34:04;;;;;;;5.47;4.70;;;;;;;5.96;98.50;99271.41;4953413;29;20185;-72
2021/12/01 05:36:29;;;;;;;3.70;3.03;;;;;;;5.96;98.51;99270.56;4968462;28;20273;-73
2021/12/01 05:38:55;;;;;;;7.03;6.20;;;;;;;5.99;98.12;99265.53;4953427;29;20192;-72
2021/12/01 05:41:21;;;;;;;3.83;3.30;;;;;;;6.02;98.76;99260.44;4953156;28;20228;-73
2021/12/01 05:43:47;;;;;;;6.60;6.00;;;;;;;6.02;98.81;99246.06;4953547;28;20189;-73
2021/12/01 05:46:12;;;;;;;4.40;3.80;;;;;;;6.05;98.29;99235.09;4953537;28;20185;-73
2021/12/01 05:48:38;;;;;;;4.10;3.30;;;;;;;6.07;98.59;99234.28;4953220;29;20422;-72
2021/12/01 05:51:04;;;;;;;5.27;3.40;;;;;;;6.09;98.17;99219.91;4953389;28;20208;-73
2021/12/01 05:53:29;;;;;;;4.10;3.17;;;;;;;6.13;98.84;99213.19;4952239;29;20279;-73
2021/12/01 05:55:55;;;;;;;3.70;3.10;;;;;;;6.19;98.62;99211.56;4953115;28;20303;-73
2021/12/01 05:58:21;;;;;;;3.80;3.40;;;;;;;6.19;99.21;99203.06;4952982;29;20193;-73
2021/12/01 06:00:48;;;;;;;3.43;3.13;;;;;;;6.23;98.37;99190.41;4952976;28;20184;-72
2021/12/01 06:03:14;;;;;;;3.47;3.10;;;;;;;6.24;98.39;99187.03;4953066;28;20677;-72
2021/12/01 06:05:39;;;;;;;3.63;3.30;;;;;;;6.28;98.37;99175.19;4968058;28;20200;-73
2021/12/01 06:08:05;;;;;;;3.80;3.50;;;;;;;6.30;98.48;99160.81;4952750;28;20255;-73
2021/12/01 06:10:31;;;;;;;4.67;3.50;;;;;;;6.37;98.63;99165.97;4952835;28;20220;-73
2021/12/01 06:12:57;;;;;;;3.73;3.33;;;;;;;6.38;99.46;99151.56;4952883;28;20204;-73
2021/12/01 06:15:22;;;;;;;4.00;3.60;;;;;;;6.45;99.15;99141.47;4952730;28;20177;-73
2021/12/01 06:17:48;;;;;;;4.93;3.90;;;;;;;6.54;98.77;99141.53;4951734;29;20294;-72
2021/12/01 06:20:14;;;;;;;6.17;5.00;;;;;;;6.78;99.47;99128.97;4952038;28;20196;-69
2021/12/01 06:22:41;;;;;;;5.63;4.87;;;;;;;7.05;98.92;99115.59;4952617;28;20229;-70
2021/12/01 06:25:07;;;;;;;6.43;5.33;;;;;;;7.15;98.98;99115.66;4952710;28;20197;-70
2021/12/01 06:27:35;;;;;;;6.03;5.30;;;;;;;7.26;99.45;99114.00;4952537;28;20205;-73
2021/12/01 06:30:00;;;;;;;7.23;5.50;;;;;;;7.25;99.68;99101.25;4951594;29;20221;-73
2021/12/01 06:32:26;;;;;;;6.63;5.93;;;;;;;7.34;99.96;99091.97;4951589;28;20223;-73
2021/12/01 06:34:51;;;;;;;8.10;6.57;;;;;;;7.40;99.67;99088.59;4952379;28;20191;-73
2021/12/01 06:37:18;;;;;;;8.93;6.67;;;;;;;7.47;99.96;99085.22;4952497;28;20264;-73
2021/12/01 06:39:45;;;;;;;9.80;7.57;;;;;;;7.45;99.52;99079.25;4968212;28;20545;-72
2021/12/01 06:42:11;;;;;;;10.97;7.80;;;;;;;7.54;100.00;99071.66;4933038;28;20587;-72
2021/12/01 06:44:37;;;;;;;10.60;8.73;;;;;;;7.63;100.00;99066.56;4950789;28;20247;-73
2021/12/01 06:47:03;;;;;;;10.83;9.13;;;;;;;7.75;99.18;99058.97;4951646;28;20236;-73
2021/12/01 06:49:28;;;;;;;10.63;8.73;;;;;;;7.86;99.81;99055.59;4953663;28;20265;-72
2021/12/01 06:51:55;;;;;;;11.30;9.30;;;;;;;7.96;99.59;99047.09;4951574;28;20213;-72
2021/12/01 06:54:20;;;;;;;11.57;8.80;;;;;;;7.96;99.87;99038.59;4950992;28;20211;-72
2021/12/01 06:56:46;;;;;;;9.10;8.20;;;;;;;8.08;100.00;99036.06;4952271;28;20268;-72
2021/12/01 06:59:11;;;;;;;8.37;7.57;;;;;;;8.15;100.00;99040.31;4951707;28;20201;-73
2021/12/01 07:01:37;;;;;;;9.17;8.10;;;;;;;8.23;99.72;99031.84;4952019;28;20260;-72
2021/12/01 07:04:02;;;;;;;8.27;7.47;;;;;;;8.25;100.00;99024.19;4952025;29;20188;-73
2021/12/01 07:06:28;;;;;;;7.67;6.33;;;;;;;8.30;100.00;99025.88;4951509;29;20244;-73
2021/12/01 07:08:58;;;;;;;6.57;5.97;;;;;;;8.34;100.00;99022.47;4951170;28;20243;-73
2021/12/01 07:11:24;;;;;;;6.23;5.63;;;;;;;8.35;99.76;99019.09;4951200;28;20299;-72
2021/12/01 07:13:49;;;;;;;5.10;4.60;;;;;;;8.51;99.27;99005.44;4951581;29;20325;-72
2021/12/01 07:16:15;;;;;;;4.80;4.30;;;;;;;8.44;99.34;99001.19;4948896;28;20228;-72
2021/12/01 07:18:40;;;;;;;4.70;4.20;;;;;;;8.45;99.21;99002.91;4950786;28;20216;-72
2021/12/01 07:21:06;;;;;;;3.90;3.60;;;;;;;8.46;99.45;98993.53;4950377;28;20299;-72
2021/12/01 07:23:31;;;;;;;3.70;3.40;;;;;;;8.48;98.98;98992.69;4950964;28;20836;-72
2021/12/01 07:25:57;;;;;;;3.43;3.13;;;;;;;8.52;98.73;98988.44;4950621;28;20192;-72
2021/12/01 07:28:22;;;;;;;3.70;3.40;;;;;;;8.50;97.95;98993.56;4950656;29;20195;-72
2021/12/01 07:30:48;;;;;;;3.73;3.40;;;;;;;8.55;97.64;98975.66;4950844;28;20228;-72
2021/12/01 07:33:14;;;;;;;3.50;2.83;;;;;;;8.54;97.65;98972.28;4950842;28;20174;-71
2021/12/01 07:35:39;;;;;;;3.40;3.10;;;;;;;8.51;98.23;98968.88;4949654;29;20648;-72
2021/12/01 07:38:05;;;;;;;3.40;3.10;;;;;;;8.51;97.17;98972.28;4950769;28;20208;-73
2021/12/01 07:40:30;;;;;;;3.47;3.17;;;;;;;8.54;96.82;98969.75;4951090;29;20189;-72
2021/12/01 07:42:56;;;;;;;3.10;2.80;;;;;;;8.54;97.17;98956.13;4949808;28;20225;-72
2021/12/01 07:45:21;;;;;;;3.07;2.83;;;;;;;8.54;96.74;98959.53;4950877;28;20193;-72
2021/12/01 07:47:47;;;;;;;3.47;3.17;;;;;;;8.55;96.44;98957.81;4950706;29;20181;-71
2021/12/01 07:50:13;;;;;;;3.77;3.47;;;;;;;8.54;95.79;98946.78;4950587;28;20201;-74
2021/12/01 07:52:41;;;;;;;4.00;3.70;;;;;;;8.57;95.30;98936.56;4950648;28;20224;-73
2021/12/01 07:55:07;;;;;;;3.50;3.30;;;;;;;8.57;95.53;98939.09;4950154;29;20235;-72
2021/12/01 07:57:33;;;;;;;3.73;3.43;;;;;;;8.54;94.97;98926.38;4950786;29;20212;-73
2021/12/01 07:59:59;;;;;;;3.43;3.20;;;;;;;8.54;94.96;98939.13;4950609;29;20227;-73
2021/12/01 08:02:25;;;;;;;3.17;2.93;;;;;;;8.56;94.59;98934.00;4951007;28;20228;-73
2021/12/01 08:04:51;;;;;;;3.43;3.20;;;;;;;8.50;95.34;98929.78;4952194;28;20192;-72
2021/12/01 08:07:16;;;;;;;3.40;3.10;;;;;;;8.46;94.96;98919.59;4955479;29;20181;-72
2021/12/01 08:09:42;;;;;;;3.63;3.33;;;;;;;8.46;94.91;98914.50;4954887;29;20647;-72
2021/12/01 08:12:11;;;;;;;3.37;3.07;;;;;;;8.45;95.69;98913.66;4954936;28;20209;-72
2021/12/01 08:14:37;;;;;;;2.97;2.67;;;;;;;8.46;95.57;98909.38;4955058;29;20196;-72
2021/12/01 08:17:03;;;;;;;3.70;3.10;;;;;;;8.46;94.54;98909.38;4955071;28;20294;-72
2021/12/01 08:19:28;;;;;;;2.60;2.40;;;;;;;8.44;94.54;98898.34;4954869;29;20197;-72
2021/12/01 08:21:54;;;;;;;2.80;2.60;;;;;;;8.46;94.89;98884.75;4954986;28;20211;-73
2021/12/01 08:24:19;;;;;;;2.60;2.40;;;;;;;8.47;94.68;98894.09;4955109;29;20240;-72
2021/12/01 08:26:46;;;;;;;2.60;2.40;;;;;;;8.50;94.39;98886.44;4955046;29;20188;-72
2021/12/01 08:29:11;;;;;;;3.07;2.77;;;;;;;8.46;94.70;98883.88;4954834;29;20252;-71
2021/12/01 08:31:38;;;;;;;3.00;2.80;;;;;;;8.49;93.75;98889.84;4954520;28;20221;-71
2021/12/01 08:34:03;;;;;;;3.40;3.10;;;;;;;8.49;93.82;98892.41;4954758;29;20195;-72
2021/12/01 08:36:29;;;;;;;3.53;3.23;;;;;;;8.53;93.30;98871.09;4954469;29;20193;-71
2021/12/01 08:38:55;;;;;;;3.67;3.37;;;;;;;8.51;93.84;98877.06;4954280;29;20578;-74
2021/12/01 08:41:21;;;;;;;3.63;3.33;;;;;;;8.50;93.28;98871.13;4954363;28;20205;-73
2021/12/01 08:43:47;;;;;;;4.23;3.63;;;;;;;8.48;93.55;98864.34;4954457;29;20185;-73
2021/12/01 08:46:12;;;;;;;3.60;3.30;;;;;;;8.45;93.53;98851.59;4954416;29;20217;-73
2021/12/01 08:48:38;;;;;;;4.27;3.37;;;;;;;8.44;93.62;98860.09;4968915;28;20219;-72
2021/12/01 08:51:06;;;;;;;3.93;3.53;;;;;;;8.43;93.23;98848.22;4953884;28;20213;-72
2021/12/01 08:53:34;;;;;;;4.40;3.50;;;;;;;8.42;93.30;98849.91;4968864;28;20224;-72
2021/12/01 08:56:00;;;;;;;3.00;2.80;;;;;;;8.43;94.13;98846.50;4954218;28;20193;-72
2021/12/01 08:58:26;;;;;;;3.23;2.93;;;;;;;8.44;93.54;98839.72;4968679;28;20623;-72
2021/12/01 09:00:54;;;;;;;4.40;2.80;;;;;;;8.46;93.14;98833.75;4941412;28;20196;-70
2021/12/01 09:03:20;;;;;;;3.23;2.97;;;;;;;8.44;93.26;98834.59;4953321;29;20280;-71
2021/12/01 09:05:47;;;;;;;2.60;2.40;;;;;;;8.43;93.79;98838.84;4968280;28;20304;-71
2021/12/01 09:08:14;;;;;;;3.00;2.70;;;;;;;8.44;93.64;98822.69;4953246;28;20220;-70
2021/12/01 09:10:40;;;;;;;2.37;2.17;;;;;;;8.44;93.59;98824.41;4953390;28;20208;-70
2021/12/01 09:13:07;;;;;;;2.77;2.40;;;;;;;8.46;93.01;98818.44;4953365;28;20220;-69
2021/12/01 09:15:34;;;;;;;2.30;2.10;;;;;;;8.51;93.00;98813.28;4953516;28;20229;-70
2021/12/01 09:18:00;;;;;;;2.33;2.13;;;;;;;8.53;92.28;98801.41;4952531;28;20207;-72
2021/12/01 09:20:26;;;;;;;2.00;1.90;;;;;;;8.58;91.32;98794.56;4953155;29;20189;-71
2021/12/01 09:22:52;;;;;;;1.97;1.87;;;;;;;8.54;91.49;98792.88;4953178;28;20201;-71
2021/12/01 09:25:18;;;;;;;2.50;2.30;;;;;;;8.54;91.70;98808.19;4953306;29;20268;-71
2021/12/01 09:27:46;;;;;;;2.47;1.90;;;;;;;8.50;91.88;98793.75;4952424;29;20598;-72
2021/12/01 09:30:14;;;;;;;2.57;2.37;;;;;;;8.70;91.82;98800.44;4952941;29;20212;-72
2021/12/01 09:32:40;;;;;;;2.20;1.93;;;;;;;8.71;90.82;98789.38;4952872;28;20209;-75
2021/12/01 09:35:07;;;;;;;1.70;1.47;;;;;;;8.72;90.76;98777.47;4953111;28;20215;-74
2021/12/01 09:37:33;;;;;;;1.63;1.53;;;;;;;8.77;90.70;98780.84;4952994;29;20189;-75
2021/12/01 09:40:01;;;;;;;1.87;1.50;;;;;;;8.52;91.37;98780.13;4952793;29;20185;-73
2021/12/01 09:42:28;;;;;;;1.73;1.63;;;;;;;8.50;91.13;98773.34;4951580;29;20213;-72
2021/12/01 09:44:55;;;;;;;1.83;1.73;;;;;;;8.47;92.31;98765.75;4952741;29;20189;-71
2021/12/01 09:47:21;;;;;;;2.60;1.70;;;;;;;8.43;91.45;98772.53;4952765;28;20212;-72
2021/12/01 09:49:47;;;;;;;2.03;1.90;;;;;;;8.42;91.73;98768.31;4952382;29;20666;-72
2021/12/01 09:52:13;;;;;;;1.70;1.60;;;;;;;8.42;92.21;98758.09;4952293;28;20278;-72
2021/12/01 09:54:39;;;;;;;3.77;1.93;;;;;;;8.44;91.74;98750.44;4952129;29;20289;-71
2021/12/01 09:57:06;;;;;;;1.80;1.57;;;;;;;8.45;91.72;98757.25;4952383;29;20229;-72
2021/12/01 09:59:33;;;;;;;1.87;1.60;;;;;;;8.46;91.22;98744.47;4967014;28;20188;-71
2021/12/01 10:01:58;;;;;;;2.03;1.60;;;;;;;8.45;91.64;98742.78;4952524;28;20208;-72
2021/12/01 10:04:25;;;;;;;2.40;1.70;;;;;;;8.45;92.31;98744.50;4952636;28;20185;-71
2021/12/01 10:07:10;;;;;;;2.33;2.13;;;;;;;8.43;92.48;98741.94;4943468;28;20240;-71
2021/12/01 10:09:50;;;;;;;1.47;1.37;;;;;;;8.45;92.45;98724.94;4966869;28;20192;-71
2021/12/01 10:12:16;;;;;;;2.03;1.80;;;;;;;8.44;91.75;98709.66;4952426;28;20209;-71
2021/12/01 10:14:51;;;;;;;1.73;1.63;;;;;;;8.42;92.48;98701.16;4952215;28;20203;-72
2021/12/01 10:17:32;;;;;;;1.70;1.40;;;;;;;8.45;91.12;98703.69;4950933;29;20200;-72
2021/12/01 10:20:11;;;;;;;1.70;1.60;;;;;;;8.49;91.30;98703.66;4952004;28;20204;-71
2021/12/01 10:22:36;;;;;;;1.73;1.63;;;;;;;8.45;91.17;98690.94;4952311;28;20745;-71
2021/12/01 10:25:02;;;;;;;2.93;1.50;;;;;;;8.45;91.65;98676.50;4952170;28;20193;-72
2021/12/01 10:27:37;;;;;;;1.87;1.60;;;;;;;8.50;92.13;98682.41;4952156;28;20185;-72
2021/12/01 10:30:03;;;;;;;2.30;1.77;;;;;;;8.51;91.56;98670.47;4950983;29;20283;-72
2021/12/01 10:32:29;;;;;;;1.83;1.73;;;;;;;8.55;91.04;98657.72;4951711;28;20681;-72
2021/12/01 10:34:58;;;;;;;1.60;1.50;;;;;;;8.56;91.84;98648.34;4951955;29;20181;-72
2021/12/01 10:37:30;;;;;;;1.93;1.70;;;;;;;8.54;91.42;98645.81;4961687;28;20279;-72
2021/12/01 10:40:03;;;;;;;1.90;1.80;;;;;;;8.57;90.89;98624.53;4971061;28;20184;-73
2021/12/01 10:42:29;;;;;;;1.97;1.87;;;;;;;8.56;90.58;98607.53;4964209;28;20216;-72
2021/12/01 10:45:03;;;;;;;2.40;2.03;;;;;;;8.54;91.28;98612.66;4951480;28;20271;-73
2021/12/01 10:47:43;;;;;;;1.80;1.70;;;;;;;8.55;90.92;98593.09;4966376;28;20208;-73
2021/12/01 10:50:12;;;;;;;1.70;1.60;;;;;;;8.59;91.25;98582.84;4951325;28;20232;-73
2021/12/01 10:52:43;;;;;;;3.50;2.23;;;;;;;8.63;91.38;98576.00;4951095;28;20255;-73
2021/12/01 10:55:08;;;;;;;1.87;1.77;;;;;;;8.63;91.22;98576.88;4949857;29;20251;-72
2021/12/01 10:57:47;;;;;;;2.83;1.63;;;;;;;8.66;90.21;98573.44;4951563;29;20177;-72
2021/12/01 11:00:22;;;;;;;2.53;1.80;;;;;;;8.63;90.79;98571.78;4950798;29;20179;-73
2021/12/01 11:02:48;;;;;;;1.77;1.50;;;;;;;8.67;90.21;98558.09;4951529;28;20212;-72
2021/12/01 11:05:26;;;;;;;2.10;1.47;;;;;;;8.70;89.38;98552.97;4951310;28;20569;-73
2021/12/01 11:07:51;;;;;;;1.40;1.30;;;;;;;8.70;90.02;98560.63;4965975;28;20197;-74
2021/12/01 11:10:19;;;;;;;2.07;1.60;;;;;;;8.73;89.48;98552.97;4951023;29;20260;-73
2021/12/01 11:12:54;;;;;;;1.33;1.23;;;;;;;8.71;89.90;98531.69;4919744;28;20303;-74
2021/12/01 11:15:21;;;;;;;1.30;1.20;;;;;;;8.72;90.13;98525.75;4964825;28;20220;-73
2021/12/01 11:17:48;;;;;;;2.83;1.50;;;;;;;8.76;88.88;98516.34;4950888;28;20192;-74
2021/12/01 11:20:31;;;;;;;1.50;1.30;;;;;;;8.79;89.29;98506.09;4951015;29;20221;-73
2021/12/01 11:23:06;;;;;;;2.90;1.43;;;;;;;8.78;89.39;98496.75;4930379;28;20762;-73
2021/12/01 11:25:33;;;;;;;1.30;1.20;;;;;;;8.82;89.38;98494.19;4946632;29;20406;-73
2021/12/01 11:27:59;;;;;;;3.00;1.13;;;;;;;8.81;89.24;98482.25;4935115;29;20645;-73
2021/12/01 11:30:24;;;;;;;1.13;1.00;;;;;;;8.85;88.80;98476.25;4964077;28;20215;-73
2021/12/01 11:32:50;;;;;;;2.60;1.47;;;;;;;8.87;89.21;98487.31;4968534;28;20204;-74
2021/12/01 11:35:15;;;;;;;1.40;1.30;;;;;;;8.89;88.66;98456.69;4951117;29;20189;-73
2021/12/01 11:37:41;;;;;;;1.50;1.40;;;;;;;8.84;89.20;98456.72;4950684;29;20565;-73
2021/12/01 11:40:07;;;;;;;1.23;1.13;;;;;;;8.91;89.64;98457.47;4950430;29;20193;-73
2021/12/01 11:42:34;;;;;;;2.63;1.60;;;;;;;8.92;89.74;98449.81;4951388;28;20574;-73